sensor_id;sensor_type;location;lat;lon;timestamp;P1;durP1;ratioP1;P2;durP2;ratioP2
44446;SDS011;30152;52.066;5.358;2023-02-15T08:02:22;54.38;;;26.13;;
44446;SDS011;30152;52.066;5.358;2023-02-15T08:04:48;47.50;;;23.15;;
44446;SDS011;30152;52.066;5.358;2023-02-15T08:07:14;46.72;;;23.45;;
44446;SDS011;30152;52.066;5.358;2023-02-15T08:09:40;42.95;;;21.58;;
44446;SDS011;30152;52.066;5.358;2023-02-15T08:12:06;41.67;;;21.67;;
44446;SDS011;30152;52.066;5.358;2023-02-15T08:14:32;35.55;;;18.63;;
44446;SDS011;30152;52.066;5.358;2023-02-15T08:16:58;40.38;;;19.92;;
44446;SDS011;30152;52.066;5.358;2023-02-15T08:19:28;35.40;;;18.40;;
44446;SDS011;30152;52.066;5.358;2023-02-15T08:21:56;37.05;;;19.02;;
44446;SDS011;30152;52.066;5.358;2023-02-15T08:24:26;44.67;;;21.48;;
44446;SDS011;30152;52.066;5.358;2023-02-15T08:26:53;39.92;;;19.38;;
44446;SDS011;30152;52.066;5.358;2023-02-15T08:29:20;37.80;;;19.00;;
44446;SDS011;30152;52.066;5.358;2023-02-15T08:31:48;41.22;;;20.15;;
44446;SDS011;30152;52.066;5.358;2023-02-15T08:34:15;40.00;;;20.85;;
44446;SDS011;30152;52.066;5.358;2023-02-15T08:36:43;42.78;;;21.98;;
44446;SDS011;30152;52.066;5.358;2023-02-15T08:39:12;38.92;;;19.48;;
44446;SDS011;30152;52.066;5.358;2023-02-15T08:41:39;49.95;;;24.48;;
44446;SDS011;30152;52.066;5.358;2023-02-15T08:44:07;45.28;;;23.30;;
44446;SDS011;30152;52.066;5.358;2023-02-15T08:46:34;53.40;;;23.63;;
44446;SDS011;30152;52.066;5.358;2023-02-15T08:49:00;44.45;;;24.00;;
44446;SDS011;30152;52.066;5.358;2023-02-15T08:51:27;48.67;;;24.95;;
44446;SDS011;30152;52.066;5.358;2023-02-15T08:53:54;57.70;;;26.67;;
44446;SDS011;30152;52.066;5.358;2023-02-15T08:56:22;54.88;;;28.48;;
44446;SDS011;30152;52.066;5.358;2023-02-15T08:58:49;59.15;;;28.48;;
44446;SDS011;30152;52.066;5.358;2023-02-15T09:01:17;64.82;;;31.23;;
44446;SDS011;30152;52.066;5.358;2023-02-15T09:03:45;61.13;;;29.33;;
44446;SDS011;30152;52.066;5.358;2023-02-15T09:06:12;65.82;;;31.25;;
44446;SDS011;30152;52.066;5.358;2023-02-15T09:08:38;61.95;;;29.73;;
44446;SDS011;30152;52.066;5.358;2023-02-15T09:11:08;56.80;;;28.52;;
44446;SDS011;30152;52.066;5.358;2023-02-15T09:13:34;57.75;;;28.83;;
44446;SDS011;30152;52.066;5.358;2023-02-15T09:16:02;59.30;;;28.25;;
44446;SDS011;30152;52.066;5.358;2023-02-15T09:18:29;55.70;;;28.80;;
44446;SDS011;30152;52.066;5.358;2023-02-15T09:20:55;58.55;;;28.23;;
44446;SDS011;30152;52.066;5.358;2023-02-15T09:23:21;60.15;;;29.00;;
44446;SDS011;30152;52.066;5.358;2023-02-15T09:25:47;58.35;;;28.95;;
44446;SDS011;30152;52.066;5.358;2023-02-15T09:28:13;62.30;;;30.70;;
44446;SDS011;30152;52.066;5.358;2023-02-15T09:30:39;57.33;;;28.25;;
44446;SDS011;30152;52.066;5.358;2023-02-15T09:33:05;59.47;;;28.02;;
44446;SDS011;30152;52.066;5.358;2023-02-15T09:35:31;56.63;;;28.23;;
44446;SDS011;30152;52.066;5.358;2023-02-15T09:37:57;58.58;;;28.85;;
44446;SDS011;30152;52.066;5.358;2023-02-15T09:40:23;54.92;;;28.52;;
44446;SDS011;30152;52.066;5.358;2023-02-15T09:43:02;59.40;;;28.85;;
44446;SDS011;30152;52.066;5.358;2023-02-15T09:48:17;62.25;;;28.83;;
44446;SDS011;30152;52.066;5.358;2023-02-15T09:50:52;55.80;;;29.70;;
44446;SDS011;30152;52.066;5.358;2023-02-15T09:53:22;58.38;;;29.67;;
44446;SDS011;30152;52.066;5.358;2023-02-15T09:56:06;56.53;;;28.92;;
44446;SDS011;30152;52.066;5.358;2023-02-15T09:58:45;62.85;;;29.38;;
44446;SDS011;30152;52.066;5.358;2023-02-15T10:22:49;58.83;;;29.30;;
44446;SDS011;30152;52.066;5.358;2023-02-15T10:28:31;58.63;;;31.10;;
44446;SDS011;30152;52.066;5.358;2023-02-15T10:33:41;56.97;;;28.98;;
44446;SDS011;30152;52.066;5.358;2023-02-15T10:46:55;55.78;;;29.40;;
44446;SDS011;30152;52.066;5.358;2023-02-15T10:54:46;61.30;;;30.67;;
44446;SDS011;30152;52.066;5.358;2023-02-15T11:02:23;55.03;;;27.38;;
44446;SDS011;30152;52.066;5.358;2023-02-15T11:07:52;57.55;;;29.70;;
44446;SDS011;30152;52.066;5.358;2023-02-15T11:10:30;56.38;;;28.90;;
44446;SDS011;30152;52.066;5.358;2023-02-15T11:12:58;56.90;;;29.05;;
44446;SDS011;30152;52.066;5.358;2023-02-15T11:15:32;56.65;;;28.63;;
44446;SDS011;30152;52.066;5.358;2023-02-15T11:18:05;55.95;;;29.45;;
44446;SDS011;30152;52.066;5.358;2023-02-15T11:20:37;54.30;;;28.38;;
44446;SDS011;30152;52.066;5.358;2023-02-15T11:23:07;48.03;;;26.58;;
44446;SDS011;30152;52.066;5.358;2023-02-15T11:25:34;55.78;;;27.90;;
44446;SDS011;30152;52.066;5.358;2023-02-15T11:28:03;57.22;;;30.17;;
44446;SDS011;30152;52.066;5.358;2023-02-15T11:30:46;54.92;;;28.98;;
44446;SDS011;30152;52.066;5.358;2023-02-15T11:33:17;50.08;;;27.52;;
44446;SDS011;30152;52.066;5.358;2023-02-15T11:35:48;55.22;;;28.95;;
44446;SDS011;30152;52.066;5.358;2023-02-15T11:38:16;55.17;;;30.23;;
44446;SDS011;30152;52.066;5.358;2023-02-15T11:43:24;57.10;;;30.48;;
44446;SDS011;30152;52.066;5.358;2023-02-15T11:45:54;58.03;;;30.23;;
44446;SDS011;30152;52.066;5.358;2023-02-15T11:48:20;59.88;;;29.75;;
44446;SDS011;30152;52.066;5.358;2023-02-15T11:50:45;60.45;;;30.13;;
44446;SDS011;30152;52.066;5.358;2023-02-15T11:53:12;54.60;;;28.48;;
44446;SDS011;30152;52.066;5.358;2023-02-15T11:55:42;54.15;;;28.75;;
44446;SDS011;30152;52.066;5.358;2023-02-15T11:58:13;57.20;;;28.75;;
44446;SDS011;30152;52.066;5.358;2023-02-15T12:00:48;56.55;;;29.20;;
44446;SDS011;30152;52.066;5.358;2023-02-15T12:06:20;57.70;;;29.88;;
44446;SDS011;30152;52.066;5.358;2023-02-15T12:08:52;48.28;;;27.00;;
44446;SDS011;30152;52.066;5.358;2023-02-15T12:11:33;57.35;;;30.05;;
44446;SDS011;30152;52.066;5.358;2023-02-15T12:14:01;58.58;;;28.67;;
44446;SDS011;30152;52.066;5.358;2023-02-15T12:16:28;57.83;;;27.75;;
44446;SDS011;30152;52.066;5.358;2023-02-15T12:18:56;52.78;;;27.00;;
44446;SDS011;30152;52.066;5.358;2023-02-15T12:21:27;52.55;;;28.42;;
44446;SDS011;30152;52.066;5.358;2023-02-15T12:23:56;60.75;;;30.65;;
44446;SDS011;30152;52.066;5.358;2023-02-15T12:26:23;56.60;;;29.00;;
44446;SDS011;30152;52.066;5.358;2023-02-15T12:28:49;55.88;;;29.75;;
44446;SDS011;30152;52.066;5.358;2023-02-15T12:31:19;58.58;;;30.92;;
44446;SDS011;30152;52.066;5.358;2023-02-15T12:33:46;56.63;;;28.10;;
44446;SDS011;30152;52.066;5.358;2023-02-15T12:36:14;55.67;;;28.98;;
44446;SDS011;30152;52.066;5.358;2023-02-15T12:38:41;53.22;;;28.35;;
44446;SDS011;30152;52.066;5.358;2023-02-15T12:41:40;54.95;;;29.55;;
44446;SDS011;30152;52.066;5.358;2023-02-15T12:47:05;52.17;;;29.55;;
44446;SDS011;30152;52.066;5.358;2023-02-15T12:49:39;56.78;;;28.92;;
44446;SDS011;30152;52.066;5.358;2023-02-15T12:54:44;50.50;;;27.92;;
44446;SDS011;30152;52.066;5.358;2023-02-15T12:59:56;51.40;;;28.10;;
44446;SDS011;30152;52.066;5.358;2023-02-15T13:02:30;59.60;;;30.45;;
44446;SDS011;30152;52.066;5.358;2023-02-15T13:04:56;56.83;;;28.65;;
44446;SDS011;30152;52.066;5.358;2023-02-15T13:07:32;57.20;;;29.75;;
44446;SDS011;30152;52.066;5.358;2023-02-15T13:09:58;55.00;;;30.13;;
44446;SDS011;30152;52.066;5.358;2023-02-15T13:12:25;54.30;;;30.20;;
44446;SDS011;30152;52.066;5.358;2023-02-15T13:14:53;58.75;;;30.42;;
44446;SDS011;30152;52.066;5.358;2023-02-15T13:17:21;57.83;;;29.23;;
44446;SDS011;30152;52.066;5.358;2023-02-15T13:19:55;56.92;;;30.25;;
44446;SDS011;30152;52.066;5.358;2023-02-15T13:24:56;55.55;;;29.90;;
44446;SDS011;30152;52.066;5.358;2023-02-15T13:27:26;54.67;;;29.50;;
44446;SDS011;30152;52.066;5.358;2023-02-15T13:29:57;55.00;;;29.75;;
44446;SDS011;30152;52.066;5.358;2023-02-15T13:32:27;53.45;;;29.80;;
44446;SDS011;30152;52.066;5.358;2023-02-15T13:34:57;59.65;;;29.98;;
44446;SDS011;30152;52.066;5.358;2023-02-15T13:37:31;61.75;;;30.95;;
44446;SDS011;30152;52.066;5.358;2023-02-15T13:39:58;56.30;;;29.52;;
44446;SDS011;30152;52.066;5.358;2023-02-15T13:48:41;61.67;;;31.52;;
44446;SDS011;30152;52.066;5.358;2023-02-15T13:51:19;63.00;;;31.10;;
44446;SDS011;30152;52.066;5.358;2023-02-15T14:01:51;62.97;;;33.57;;
44446;SDS011;30152;52.066;5.358;2023-02-15T14:07:25;64.20;;;32.10;;
44446;SDS011;30152;52.066;5.358;2023-02-15T14:19:10;63.33;;;33.22;;
44446;SDS011;30152;52.066;5.358;2023-02-15T14:24:33;63.13;;;33.90;;
44446;SDS011;30152;52.066;5.358;2023-02-15T14:27:26;71.38;;;35.25;;
44446;SDS011;30152;52.066;5.358;2023-02-15T14:30:04;67.10;;;35.47;;
44446;SDS011;30152;52.066;5.358;2023-02-15T14:32:42;66.00;;;34.92;;
44446;SDS011;30152;52.066;5.358;2023-02-15T14:35:19;61.78;;;33.35;;
44446;SDS011;30152;52.066;5.358;2023-02-15T14:43:32;65.43;;;34.00;;
44446;SDS011;30152;52.066;5.358;2023-02-15T14:49:25;56.47;;;31.30;;
44446;SDS011;30152;52.066;5.358;2023-02-15T14:51:56;66.80;;;32.28;;
44446;SDS011;30152;52.066;5.358;2023-02-15T14:57:20;64.03;;;32.47;;
44446;SDS011;30152;52.066;5.358;2023-02-15T14:59:45;57.80;;;31.15;;
44446;SDS011;30152;52.066;5.358;2023-02-15T15:02:25;59.22;;;31.38;;
44446;SDS011;30152;52.066;5.358;2023-02-15T15:05:08;55.33;;;29.95;;
44446;SDS011;30152;52.066;5.358;2023-02-15T15:07:36;59.10;;;29.88;;
44446;SDS011;30152;52.066;5.358;2023-02-15T15:10:04;53.95;;;30.60;;
44446;SDS011;30152;52.066;5.358;2023-02-15T15:12:49;60.30;;;31.00;;
44446;SDS011;30152;52.066;5.358;2023-02-15T15:20:48;62.38;;;30.67;;
44446;SDS011;30152;52.066;5.358;2023-02-15T15:31:31;60.28;;;32.25;;
44446;SDS011;30152;52.066;5.358;2023-02-15T15:34:07;60.33;;;30.85;;
44446;SDS011;30152;52.066;5.358;2023-02-15T15:37:04;56.95;;;31.25;;
44446;SDS011;30152;52.066;5.358;2023-02-15T15:42:49;59.65;;;31.95;;
44446;SDS011;30152;52.066;5.358;2023-02-15T15:45:50;60.72;;;31.83;;
44446;SDS011;30152;52.066;5.358;2023-02-15T15:48:33;62.88;;;30.17;;
44446;SDS011;30152;52.066;5.358;2023-02-15T15:51:10;57.33;;;30.17;;
44446;SDS011;30152;52.066;5.358;2023-02-15T15:53:44;60.90;;;30.70;;
44446;SDS011;30152;52.066;5.358;2023-02-15T15:56:35;56.80;;;32.72;;
44446;SDS011;30152;52.066;5.358;2023-02-15T15:59:01;57.15;;;32.80;;
44446;SDS011;30152;52.066;5.358;2023-02-15T16:01:39;59.10;;;31.85;;
44446;SDS011;30152;52.066;5.358;2023-02-15T16:04:21;61.92;;;32.72;;
44446;SDS011;30152;52.066;5.358;2023-02-15T16:06:50;61.72;;;32.00;;
44446;SDS011;30152;52.066;5.358;2023-02-15T16:09:23;58.05;;;31.77;;
44446;SDS011;30152;52.066;5.358;2023-02-15T16:11:51;60.13;;;32.72;;
44446;SDS011;30152;52.066;5.358;2023-02-15T16:14:37;59.65;;;32.38;;
44446;SDS011;30152;52.066;5.358;2023-02-15T16:17:05;64.97;;;33.58;;
44446;SDS011;30152;52.066;5.358;2023-02-15T16:19:34;60.40;;;30.83;;
44446;SDS011;30152;52.066;5.358;2023-02-15T16:22:03;59.17;;;32.30;;
44446;SDS011;30152;52.066;5.358;2023-02-15T16:27:18;50.25;;;23.65;;
44446;SDS011;30152;52.066;5.358;2023-02-15T16:29:44;66.95;;;33.35;;
44446;SDS011;30152;52.066;5.358;2023-02-15T16:32:20;67.40;;;32.58;;
44446;SDS011;30152;52.066;5.358;2023-02-15T16:35:13;68.72;;;34.30;;
44446;SDS011;30152;52.066;5.358;2023-02-15T16:37:36;64.60;;;34.15;;
44446;SDS011;30152;52.066;5.358;2023-02-15T16:40:02;70.88;;;32.90;;
44446;SDS011;30152;52.066;5.358;2023-02-15T16:42:28;65.70;;;33.08;;
44446;SDS011;30152;52.066;5.358;2023-02-15T16:45:07;60.67;;;33.75;;
44446;SDS011;30152;52.066;5.358;2023-02-15T16:47:39;69.90;;;34.58;;
44446;SDS011;30152;52.066;5.358;2023-02-15T16:50:16;68.68;;;33.88;;
44446;SDS011;30152;52.066;5.358;2023-02-15T16:52:44;68.28;;;34.60;;
44446;SDS011;30152;52.066;5.358;2023-02-15T16:55:23;70.38;;;35.33;;
44446;SDS011;30152;52.066;5.358;2023-02-15T16:57:50;67.18;;;34.05;;
44446;SDS011;30152;52.066;5.358;2023-02-15T17:00:21;63.22;;;33.72;;
44446;SDS011;30152;52.066;5.358;2023-02-15T17:05:46;60.08;;;33.88;;
44446;SDS011;30152;52.066;5.358;2023-02-15T17:08:18;64.95;;;34.33;;
44446;SDS011;30152;52.066;5.358;2023-02-15T17:13:25;68.28;;;35.35;;
44446;SDS011;30152;52.066;5.358;2023-02-15T17:18:33;69.25;;;34.35;;
44446;SDS011;30152;52.066;5.358;2023-02-15T17:21:00;60.72;;;32.50;;
44446;SDS011;30152;52.066;5.358;2023-02-15T17:23:31;64.03;;;33.38;;
44446;SDS011;30152;52.066;5.358;2023-02-15T17:26:12;67.30;;;34.67;;
44446;SDS011;30152;52.066;5.358;2023-02-15T17:29:18;70.20;;;35.67;;
44446;SDS011;30152;52.066;5.358;2023-02-15T17:31:47;67.35;;;36.22;;
44446;SDS011;30152;52.066;5.358;2023-02-15T17:34:41;70.75;;;37.17;;
44446;SDS011;30152;52.066;5.358;2023-02-15T17:40:07;78.30;;;39.25;;
44446;SDS011;30152;52.066;5.358;2023-02-15T17:42:52;69.72;;;36.35;;
44446;SDS011;30152;52.066;5.358;2023-02-15T17:45:18;73.45;;;38.60;;
44446;SDS011;30152;52.066;5.358;2023-02-15T17:47:45;72.82;;;39.38;;
44446;SDS011;30152;52.066;5.358;2023-02-15T17:50:22;80.47;;;38.67;;
44446;SDS011;30152;52.066;5.358;2023-02-15T17:52:49;74.70;;;38.88;;
44446;SDS011;30152;52.066;5.358;2023-02-15T17:55:17;74.95;;;39.30;;
44446;SDS011;30152;52.066;5.358;2023-02-15T17:58:04;76.53;;;38.88;;
44446;SDS011;30152;52.066;5.358;2023-02-15T18:00:39;70.95;;;36.17;;
44446;SDS011;30152;52.066;5.358;2023-02-15T18:03:34;76.95;;;38.17;;
44446;SDS011;30152;52.066;5.358;2023-02-15T18:06:29;73.00;;;37.10;;
44446;SDS011;30152;52.066;5.358;2023-02-15T18:09:14;77.20;;;37.38;;
44446;SDS011;30152;52.066;5.358;2023-02-15T18:12:00;78.50;;;38.30;;
44446;SDS011;30152;52.066;5.358;2023-02-15T18:14:26;74.22;;;38.20;;
44446;SDS011;30152;52.066;5.358;2023-02-15T18:16:52;73.68;;;38.50;;
44446;SDS011;30152;52.066;5.358;2023-02-15T18:19:22;77.53;;;38.95;;
44446;SDS011;30152;52.066;5.358;2023-02-15T18:21:49;80.13;;;39.35;;
44446;SDS011;30152;52.066;5.358;2023-02-15T18:24:20;73.38;;;36.15;;
44446;SDS011;30152;52.066;5.358;2023-02-15T18:26:48;78.03;;;37.92;;
44446;SDS011;30152;52.066;5.358;2023-02-15T18:29:14;70.60;;;36.10;;
44446;SDS011;30152;52.066;5.358;2023-02-15T18:31:40;79.43;;;37.15;;
44446;SDS011;30152;52.066;5.358;2023-02-15T18:34:08;66.97;;;36.15;;
44446;SDS011;30152;52.066;5.358;2023-02-15T18:36:44;74.15;;;35.55;;
44446;SDS011;30152;52.066;5.358;2023-02-15T18:39:23;72.20;;;37.40;;
44446;SDS011;30152;52.066;5.358;2023-02-15T18:41:50;73.20;;;37.38;;
44446;SDS011;30152;52.066;5.358;2023-02-15T18:44:16;75.57;;;37.70;;
44446;SDS011;30152;52.066;5.358;2023-02-15T18:46:42;71.75;;;34.83;;
44446;SDS011;30152;52.066;5.358;2023-02-15T18:49:08;71.50;;;35.17;;
44446;SDS011;30152;52.066;5.358;2023-02-15T18:51:34;79.15;;;36.47;;
44446;SDS011;30152;52.066;5.358;2023-02-15T18:54:04;68.63;;;36.45;;
44446;SDS011;30152;52.066;5.358;2023-02-15T18:56:31;74.90;;;36.92;;
44446;SDS011;30152;52.066;5.358;2023-02-15T18:58:57;77.88;;;36.95;;
44446;SDS011;30152;52.066;5.358;2023-02-15T19:01:23;75.80;;;37.10;;
44446;SDS011;30152;52.066;5.358;2023-02-15T19:03:49;75.03;;;36.75;;
44446;SDS011;30152;52.066;5.358;2023-02-15T19:06:16;73.15;;;34.80;;
44446;SDS011;30152;52.066;5.358;2023-02-15T19:08:44;69.03;;;36.95;;
44446;SDS011;30152;52.066;5.358;2023-02-15T19:11:16;76.15;;;38.35;;
44446;SDS011;30152;52.066;5.358;2023-02-15T19:13:47;75.03;;;37.03;;
44446;SDS011;30152;52.066;5.358;2023-02-15T19:16:18;69.35;;;37.47;;
44446;SDS011;30152;52.066;5.358;2023-02-15T19:18:54;69.30;;;36.08;;
44446;SDS011;30152;52.066;5.358;2023-02-15T19:21:20;71.28;;;35.75;;
44446;SDS011;30152;52.066;5.358;2023-02-15T19:23:48;77.30;;;35.80;;
44446;SDS011;30152;52.066;5.358;2023-02-15T19:26:20;73.78;;;37.17;;
44446;SDS011;30152;52.066;5.358;2023-02-15T19:28:46;71.20;;;35.92;;
44446;SDS011;30152;52.066;5.358;2023-02-15T19:31:12;76.05;;;34.83;;
44446;SDS011;30152;52.066;5.358;2023-02-15T19:33:38;69.78;;;35.10;;
44446;SDS011;30152;52.066;5.358;2023-02-15T19:36:05;69.78;;;36.05;;
44446;SDS011;30152;52.066;5.358;2023-02-15T19:38:36;68.53;;;34.97;;
44446;SDS011;30152;52.066;5.358;2023-02-15T19:41:03;78.28;;;36.58;;
44446;SDS011;30152;52.066;5.358;2023-02-15T19:43:31;70.82;;;34.70;;
44446;SDS011;30152;52.066;5.358;2023-02-15T19:45:58;73.55;;;35.33;;
44446;SDS011;30152;52.066;5.358;2023-02-15T19:48:24;73.30;;;35.40;;
44446;SDS011;30152;52.066;5.358;2023-02-15T19:50:49;68.32;;;34.63;;
44446;SDS011;30152;52.066;5.358;2023-02-15T19:55:46;69.28;;;33.55;;
44446;SDS011;30152;52.066;5.358;2023-02-15T19:58:12;77.38;;;35.42;;
44446;SDS011;30152;52.066;5.358;2023-02-15T20:00:38;75.70;;;35.25;;
44446;SDS011;30152;52.066;5.358;2023-02-15T20:03:04;79.68;;;35.90;;
44446;SDS011;30152;52.066;5.358;2023-02-15T20:05:30;74.25;;;36.60;;
44446;SDS011;30152;52.066;5.358;2023-02-15T20:07:58;78.32;;;37.15;;
44446;SDS011;30152;52.066;5.358;2023-02-15T20:10:28;72.07;;;34.75;;
44446;SDS011;30152;52.066;5.358;2023-02-15T20:12:55;68.47;;;36.53;;
44446;SDS011;30152;52.066;5.358;2023-02-15T20:15:26;73.85;;;35.63;;
44446;SDS011;30152;52.066;5.358;2023-02-15T20:17:59;65.75;;;33.00;;
44446;SDS011;30152;52.066;5.358;2023-02-15T20:20:32;66.15;;;35.40;;
44446;SDS011;30152;52.066;5.358;2023-02-15T20:23:03;70.10;;;34.92;;
44446;SDS011;30152;52.066;5.358;2023-02-15T20:25:29;72.15;;;35.45;;
44446;SDS011;30152;52.066;5.358;2023-02-15T20:27:57;71.00;;;36.22;;
44446;SDS011;30152;52.066;5.358;2023-02-15T20:30:25;69.97;;;35.13;;
44446;SDS011;30152;52.066;5.358;2023-02-15T20:32:52;74.18;;;34.95;;
44446;SDS011;30152;52.066;5.358;2023-02-15T20:35:19;73.90;;;36.20;;
44446;SDS011;30152;52.066;5.358;2023-02-15T20:37:50;69.55;;;35.10;;
44446;SDS011;30152;52.066;5.358;2023-02-15T20:40:19;76.45;;;35.70;;
44446;SDS011;30152;52.066;5.358;2023-02-15T20:42:46;72.10;;;36.22;;
44446;SDS011;30152;52.066;5.358;2023-02-15T20:45:13;73.40;;;36.20;;
44446;SDS011;30152;52.066;5.358;2023-02-15T20:47:42;75.47;;;37.28;;
44446;SDS011;30152;52.066;5.358;2023-02-15T20:50:12;68.88;;;34.60;;
44446;SDS011;30152;52.066;5.358;2023-02-15T20:52:42;79.70;;;38.22;;
44446;SDS011;30152;52.066;5.358;2023-02-15T20:55:12;72.47;;;35.90;;
44446;SDS011;30152;52.066;5.358;2023-02-15T20:57:43;67.10;;;34.75;;
44446;SDS011;30152;52.066;5.358;2023-02-15T21:00:13;75.68;;;35.83;;
44446;SDS011;30152;52.066;5.358;2023-02-15T21:02:39;77.28;;;36.67;;
44446;SDS011;30152;52.066;5.358;2023-02-15T21:05:13;74.22;;;37.97;;
44446;SDS011;30152;52.066;5.358;2023-02-15T21:07:43;80.97;;;36.97;;
44446;SDS011;30152;52.066;5.358;2023-02-15T21:10:19;78.63;;;36.85;;
44446;SDS011;30152;52.066;5.358;2023-02-15T21:12:50;72.90;;;36.17;;
44446;SDS011;30152;52.066;5.358;2023-02-15T21:15:24;69.95;;;35.50;;
44446;SDS011;30152;52.066;5.358;2023-02-15T21:17:50;75.20;;;36.78;;
44446;SDS011;30152;52.066;5.358;2023-02-15T21:20:16;69.97;;;34.72;;
44446;SDS011;30152;52.066;5.358;2023-02-15T21:22:42;70.03;;;36.42;;
44446;SDS011;30152;52.066;5.358;2023-02-15T21:25:14;68.10;;;35.85;;
44446;SDS011;30152;52.066;5.358;2023-02-15T21:27:46;69.05;;;37.00;;
44446;SDS011;30152;52.066;5.358;2023-02-15T21:30:15;74.50;;;36.00;;
44446;SDS011;30152;52.066;5.358;2023-02-15T21:32:42;73.18;;;37.10;;
44446;SDS011;30152;52.066;5.358;2023-02-15T21:35:11;73.72;;;38.10;;
44446;SDS011;30152;52.066;5.358;2023-02-15T21:37:38;68.75;;;36.55;;
44446;SDS011;30152;52.066;5.358;2023-02-15T21:40:12;73.10;;;37.10;;
44446;SDS011;30152;52.066;5.358;2023-02-15T21:42:39;70.90;;;35.10;;
44446;SDS011;30152;52.066;5.358;2023-02-15T21:45:23;76.07;;;36.35;;
44446;SDS011;30152;52.066;5.358;2023-02-15T21:48:08;72.07;;;36.28;;
44446;SDS011;30152;52.066;5.358;2023-02-15T21:50:34;77.57;;;37.85;;
44446;SDS011;30152;52.066;5.358;2023-02-15T21:53:32;74.00;;;37.08;;
44446;SDS011;30152;52.066;5.358;2023-02-15T21:56:00;76.72;;;37.10;;
44446;SDS011;30152;52.066;5.358;2023-02-15T21:58:29;72.15;;;35.15;;
44446;SDS011;30152;52.066;5.358;2023-02-15T22:00:57;74.22;;;35.38;;
44446;SDS011;30152;52.066;5.358;2023-02-15T22:03:24;73.93;;;36.35;;
44446;SDS011;30152;52.066;5.358;2023-02-15T22:05:54;71.82;;;37.85;;
44446;SDS011;30152;52.066;5.358;2023-02-15T22:08:20;71.90;;;37.70;;
44446;SDS011;30152;52.066;5.358;2023-02-15T22:10:46;76.90;;;36.80;;
44446;SDS011;30152;52.066;5.358;2023-02-15T22:13:13;71.85;;;37.78;;
44446;SDS011;30152;52.066;5.358;2023-02-15T22:15:41;74.45;;;37.22;;
44446;SDS011;30152;52.066;5.358;2023-02-15T22:18:13;72.72;;;38.08;;
44446;SDS011;30152;52.066;5.358;2023-02-15T22:20:44;68.13;;;37.15;;
44446;SDS011;30152;52.066;5.358;2023-02-15T22:23:10;75.22;;;37.25;;
44446;SDS011;30152;52.066;5.358;2023-02-15T22:25:36;75.07;;;37.15;;
44446;SDS011;30152;52.066;5.358;2023-02-15T22:28:02;70.55;;;35.13;;
44446;SDS011;30152;52.066;5.358;2023-02-15T22:30:29;78.57;;;38.28;;
44446;SDS011;30152;52.066;5.358;2023-02-15T22:32:57;75.05;;;36.88;;
44446;SDS011;30152;52.066;5.358;2023-02-15T22:35:25;79.80;;;37.67;;
